createdAt,value
2022-12-20T00:01:18.797Z,30.65
2022-12-20T00:05:21.714Z,34.73
2022-12-20T00:09:26.417Z,33.77
2022-12-20T00:13:29.667Z,30.30
2022-12-20T00:17:32.775Z,35.37
2022-12-20T00:21:36.392Z,30.03
2022-12-20T00:25:40.688Z,32.77
2022-12-20T00:29:43.518Z,31.90
2022-12-20T00:33:47.860Z,30.53
2022-12-20T00:37:50.840Z,30.37
2022-12-20T00:41:55.358Z,29.30
2022-12-20T00:45:58.913Z,31.53
2022-12-20T00:50:01.881Z,30.57
2022-12-20T00:54:04.680Z,31.83
2022-12-20T00:58:11.404Z,32.53
2022-12-20T01:02:14.190Z,30.00
2022-12-20T01:06:17.581Z,31.57
2022-12-20T01:10:20.545Z,30.47
2022-12-20T01:14:24.646Z,30.73
2022-12-20T01:18:27.323Z,29.17
2022-12-20T01:22:29.985Z,31.30
2022-12-20T01:26:32.692Z,28.73
2022-12-20T01:30:36.968Z,30.13
2022-12-20T01:34:39.762Z,29.57
2022-12-20T01:38:42.733Z,28.67
2022-12-20T01:42:46.275Z,27.27
2022-12-20T01:46:52.187Z,27.60
2022-12-20T01:50:54.966Z,30.77
2022-12-20T01:55:01.775Z,28.67
2022-12-20T01:59:04.536Z,30.10
2022-12-20T02:03:11.425Z,30.80
2022-12-20T02:07:20.263Z,27.47
2022-12-20T02:11:35.527Z,31.23
2022-12-20T02:15:44.713Z,29.50
2022-12-20T02:20:07.663Z,27.67
2022-12-20T02:24:46.260Z,29.10
2022-12-20T02:29:03.794Z,27.73
2022-12-20T02:33:10.220Z,31.63
2022-12-20T02:37:13.250Z,28.67
2022-12-20T02:41:18.858Z,28.40
2022-12-20T02:45:23.527Z,30.57
2022-12-20T02:49:30.711Z,31.20
2022-12-20T02:53:33.743Z,28.70
2022-12-20T02:57:42.192Z,30.17
2022-12-20T03:01:48.036Z,28.73
2022-12-20T03:05:53.741Z,28.47
2022-12-20T03:09:56.501Z,31.87
2022-12-20T03:13:59.203Z,30.50
2022-12-20T03:18:01.990Z,31.40
2022-12-20T03:22:06.103Z,30.73
2022-12-20T03:26:08.835Z,31.27
2022-12-20T03:30:12.869Z,28.50
2022-12-20T03:34:15.847Z,30.03
2022-12-20T03:38:19.917Z,30.23
2022-12-20T03:42:22.770Z,30.57
2022-12-20T03:46:25.862Z,32.03
2022-12-20T03:50:28.721Z,33.33
2022-12-20T03:54:32.950Z,29.13
2022-12-20T03:58:35.703Z,29.87
2022-12-20T04:02:38.811Z,29.77
2022-12-20T04:06:41.861Z,28.57
2022-12-20T04:11:03.269Z,27.83
2022-12-20T04:15:07.031Z,30.87
2022-12-20T04:19:10.190Z,31.67
2022-12-20T04:23:12.901Z,31.07
2022-12-20T04:27:16.955Z,29.33
2022-12-20T04:31:23.776Z,29.43
2022-12-20T04:35:27.162Z,31.30
2022-12-20T04:39:29.976Z,31.27
2022-12-20T04:43:34.427Z,29.60
2022-12-20T04:47:37.203Z,30.93
2022-12-20T04:51:39.910Z,31.83
2022-12-20T04:55:43.061Z,32.57
2022-12-20T04:59:47.502Z,27.37
2022-12-20T05:03:50.730Z,29.53
2022-12-20T05:07:53.882Z,29.30
2022-12-20T05:11:56.880Z,30.93
2022-12-20T05:16:02.375Z,27.77
2022-12-20T05:20:08.472Z,29.30
2022-12-20T05:24:28.709Z,25.57
2022-12-20T05:28:31.963Z,29.97
2022-12-20T05:32:36.079Z,27.23
2022-12-20T05:36:39.085Z,28.43
2022-12-20T05:40:42.782Z,28.77
2022-12-20T05:44:45.763Z,32.87
2022-12-20T05:48:49.837Z,28.20
2022-12-20T05:52:52.587Z,28.17
2022-12-20T05:56:55.533Z,28.93
2022-12-20T06:00:58.318Z,27.97
2022-12-20T06:05:02.813Z,29.97
2022-12-20T06:09:05.652Z,30.00
2022-12-20T06:13:10.115Z,30.63
2022-12-20T06:17:13.211Z,27.40
2022-12-20T06:21:18.128Z,30.03
2022-12-20T06:25:24.129Z,29.13
2022-12-20T06:29:26.990Z,30.13
2022-12-20T06:33:32.095Z,30.90
2022-12-20T06:37:36.460Z,29.30
2022-12-20T06:41:39.102Z,31.17
2022-12-20T06:45:42.574Z,30.70
2022-12-20T06:49:45.542Z,27.63
2022-12-20T06:53:49.893Z,27.57
2022-12-20T06:57:52.830Z,28.87
2022-12-20T07:01:55.967Z,29.17
2022-12-20T07:05:58.851Z,30.30
2022-12-20T07:10:03.205Z,26.63
2022-12-20T07:14:06.178Z,29.67
2022-12-20T07:18:09.163Z,29.33
2022-12-20T07:22:11.887Z,27.80
2022-12-20T07:26:16.646Z,28.83
2022-12-20T07:30:20.218Z,28.93
2022-12-20T07:34:23.173Z,29.07
2022-12-20T07:38:26.325Z,29.60
2022-12-20T07:42:35.760Z,27.93
2022-12-20T07:46:39.557Z,26.63
2022-12-20T07:50:43.155Z,28.90
2022-12-20T07:54:49.125Z,28.83
2022-12-20T07:58:56.323Z,29.93
2022-12-20T08:03:03.695Z,31.60
2022-12-20T08:07:06.786Z,31.00
2022-12-20T08:11:10.680Z,29.07
2022-12-20T08:15:15.114Z,29.10
2022-12-20T08:19:18.172Z,28.60
2022-12-20T08:23:21.226Z,29.60
2022-12-20T08:27:23.969Z,26.77
2022-12-20T08:31:28.120Z,27.97
2022-12-20T08:35:31.762Z,29.13
2022-12-20T08:39:34.529Z,30.07
2022-12-20T08:43:37.708Z,28.97
2022-12-20T08:47:41.852Z,26.80
2022-12-20T08:51:44.578Z,28.53
2022-12-20T08:55:47.334Z,26.90
2022-12-20T08:59:50.174Z,26.93
2022-12-20T09:03:54.635Z,25.90
2022-12-20T09:07:57.724Z,25.53
2022-12-20T09:12:00.448Z,27.40
2022-12-20T09:16:03.458Z,26.40
2022-12-20T09:20:09.203Z,28.87
2022-12-20T09:24:12.953Z,31.23
2022-12-20T09:28:15.665Z,28.77
2022-12-20T09:32:18.409Z,27.87
2022-12-20T09:36:24.039Z,27.20
2022-12-20T09:40:30.075Z,27.20
2022-12-20T09:44:36.081Z,28.37
2022-12-20T09:48:40.309Z,27.87
2022-12-20T09:52:57.788Z,26.17
2022-12-20T09:57:04.610Z,26.77
2022-12-20T10:01:21.430Z,27.73
2022-12-20T10:05:41.222Z,28.23
2022-12-20T10:10:10.921Z,24.53
2022-12-20T10:14:26.261Z,26.47
2022-12-20T10:18:43.613Z,26.00
2022-12-20T10:22:50.757Z,25.20
2022-12-20T10:26:55.051Z,26.63
2022-12-20T10:31:00.676Z,24.83
2022-12-20T10:35:23.582Z,27.77
2022-12-20T10:39:41.849Z,24.17
2022-12-20T10:43:47.947Z,24.43
2022-12-20T10:47:52.522Z,24.10
2022-12-20T10:51:56.550Z,24.77
2022-12-20T10:56:14.559Z,24.50
2022-12-20T11:00:30.234Z,26.10
2022-12-20T11:04:35.801Z,25.17
2022-12-20T11:08:46.732Z,24.00
2022-12-20T11:12:55.018Z,28.43
2022-12-20T11:17:01.006Z,24.70
2022-12-20T11:21:17.127Z,23.37
2022-12-20T11:25:34.506Z,25.70
2022-12-20T11:29:50.017Z,24.63
2022-12-20T11:34:04.486Z,23.33
2022-12-20T11:38:14.611Z,25.60
2022-12-20T11:42:24.622Z,22.33
2022-12-20T11:46:38.097Z,23.73
2022-12-20T11:50:50.723Z,24.77
2022-12-20T11:55:00.153Z,22.77
2022-12-20T11:59:05.604Z,25.23
2022-12-20T12:03:14.181Z,22.07
2022-12-20T12:07:21.713Z,22.53
2022-12-20T12:15:54.389Z,22.03
2022-12-20T12:20:01.686Z,21.10
2022-12-20T12:24:09.502Z,20.77
2022-12-20T12:28:13.579Z,21.43
2022-12-20T12:32:21.813Z,21.17
2022-12-20T12:36:42.058Z,22.47
2022-12-20T12:41:00.368Z,19.97
2022-12-20T12:45:05.210Z,22.23
2022-12-20T12:49:11.533Z,23.63
2022-12-20T12:53:16.602Z,23.57
2022-12-20T12:57:24.333Z,20.57
2022-12-20T13:01:49.980Z,24.63
2022-12-20T13:05:52.981Z,20.07
2022-12-20T13:09:55.796Z,22.80
2022-12-20T13:14:26.204Z,20.50
2022-12-20T13:18:29.533Z,18.87
2022-12-20T13:22:32.400Z,19.27
2022-12-20T13:26:53.067Z,20.20
2022-12-20T13:31:37.618Z,18.83
2022-12-20T13:36:00.983Z,19.33
2022-12-20T13:40:05.839Z,21.27
2022-12-20T13:44:33.167Z,17.00
2022-12-20T13:48:44.173Z,18.93
2022-12-20T13:52:47.097Z,17.30
2022-12-20T13:56:51.300Z,19.83
2022-12-20T14:00:55.099Z,19.33
2022-12-20T14:05:02.090Z,16.40
2022-12-20T14:09:05.854Z,18.37
2022-12-20T14:13:21.563Z,21.50
2022-12-20T14:17:26.954Z,19.13
2022-12-20T14:21:34.001Z,18.97
2022-12-20T14:25:42.147Z,18.97
2022-12-20T14:29:46.206Z,19.70
2022-12-20T14:33:52.082Z,20.93
2022-12-20T14:37:59.490Z,20.67
2022-12-20T14:42:03.793Z,20.20
2022-12-20T14:46:19.239Z,24.03
2022-12-20T14:50:26.737Z,18.53
2022-12-20T14:55:06.420Z,18.70
2022-12-20T14:59:07.879Z,23.10
2022-12-20T15:03:18.150Z,20.13
2022-12-20T15:07:30.634Z,19.27
2022-12-20T15:11:36.594Z,19.80
2022-12-20T15:15:39.377Z,18.27
2022-12-20T15:19:43.058Z,19.57
2022-12-20T15:23:49.542Z,18.53
2022-12-20T15:27:57.219Z,20.13
2022-12-20T15:32:05.519Z,18.20
2022-12-20T15:36:10.331Z,18.73
2022-12-20T15:40:15.858Z,23.50
2022-12-20T15:44:22.278Z,20.60
2022-12-20T15:48:25.139Z,23.13
2022-12-20T15:52:28.464Z,21.80
2022-12-20T15:56:31.392Z,21.83
2022-12-20T16:00:35.868Z,22.37
2022-12-20T16:04:38.837Z,20.60
2022-12-20T16:08:41.887Z,23.77
2022-12-20T16:12:44.925Z,21.60
2022-12-20T16:16:50.151Z,20.87
2022-12-20T16:20:53.079Z,21.13
2022-12-20T16:24:55.790Z,19.17
2022-12-20T16:28:58.720Z,20.23
2022-12-20T16:33:03.110Z,19.47
2022-12-20T16:37:08.346Z,23.10
2022-12-20T16:41:14.537Z,22.93
2022-12-20T16:45:19.568Z,21.53
2022-12-20T16:49:24.263Z,26.23
2022-12-20T16:53:34.464Z,23.47
2022-12-20T16:57:45.604Z,23.00
2022-12-20T17:01:48.749Z,27.53
2022-12-20T17:05:53.735Z,25.27
2022-12-20T17:09:56.531Z,28.40
2022-12-20T17:14:00.102Z,25.87
2022-12-20T17:18:03.296Z,23.50
2022-12-20T17:26:29.321Z,22.57
2022-12-20T17:30:32.043Z,22.83
2022-12-20T17:34:36.478Z,26.27
2022-12-20T17:38:40.811Z,25.07
2022-12-20T17:42:43.821Z,21.33
2022-12-20T17:46:47.036Z,21.67
2022-12-20T17:50:49.817Z,24.03
2022-12-20T17:54:54.394Z,23.80
2022-12-20T17:58:57.637Z,25.87
2022-12-20T18:03:00.843Z,22.50
2022-12-20T18:07:04.803Z,23.70
2022-12-20T18:11:08.928Z,24.87
2022-12-20T18:15:12.413Z,24.53
2022-12-20T18:19:17.015Z,26.37
2022-12-20T18:23:19.980Z,24.50
2022-12-20T18:27:30.305Z,26.90
2022-12-20T18:31:35.598Z,25.40
2022-12-20T18:35:38.385Z,28.43
2022-12-20T18:39:41.898Z,27.43
2022-12-20T18:43:46.093Z,24.17
2022-12-20T18:47:50.119Z,25.53
2022-12-20T18:51:53.317Z,23.23
2022-12-20T18:55:56.382Z,34.60
2022-12-20T19:00:00.455Z,27.97
2022-12-20T19:04:05.347Z,26.57
2022-12-20T19:08:08.073Z,25.10
2022-12-20T19:12:10.823Z,25.27
2022-12-20T19:16:16.803Z,22.90
2022-12-20T19:20:21.038Z,22.33
2022-12-20T19:24:23.733Z,24.40
2022-12-20T19:28:26.433Z,25.50
2022-12-20T19:32:30.564Z,24.53
2022-12-20T19:36:36.779Z,24.70
2022-12-20T19:40:39.560Z,23.93
2022-12-20T19:44:42.275Z,26.47
2022-12-20T19:48:46.566Z,26.83
2022-12-20T19:52:49.508Z,24.67
2022-12-20T19:56:52.181Z,26.13
2022-12-20T20:00:55.018Z,26.07
2022-12-20T20:04:59.547Z,25.30
2022-12-20T20:09:02.343Z,26.60
2022-12-20T20:13:06.325Z,26.33
2022-12-20T20:17:09.068Z,23.73
2022-12-20T20:21:16.414Z,23.20
2022-12-20T20:25:19.621Z,23.03
2022-12-20T20:29:22.436Z,26.83
2022-12-20T20:33:25.943Z,23.50
2022-12-20T20:37:30.034Z,21.93
2022-12-20T20:41:32.755Z,25.90
2022-12-20T20:45:35.645Z,24.17
2022-12-20T20:49:38.360Z,24.63
2022-12-20T20:53:43.069Z,21.83
2022-12-20T20:57:45.821Z,32.10
2022-12-20T21:01:48.689Z,23.10
2022-12-20T21:06:33.005Z,25.43
2022-12-20T21:10:16.379Z,25.77
2022-12-20T21:14:31.572Z,24.20
2022-12-20T21:18:41.951Z,19.77
2022-12-20T21:22:45.194Z,22.07
2022-12-20T21:26:51.092Z,24.40
2022-12-20T21:30:59.726Z,24.03
2022-12-20T21:35:02.490Z,20.70
2022-12-20T21:39:05.375Z,22.80
2022-12-20T21:43:09.655Z,23.67
2022-12-20T21:47:12.411Z,22.40
2022-12-20T21:51:17.588Z,22.07
2022-12-20T21:55:20.610Z,23.23
2022-12-20T21:59:26.653Z,24.60
2022-12-20T22:03:29.982Z,28.57
2022-12-20T22:07:32.992Z,25.20
2022-12-20T22:11:36.234Z,22.37
2022-12-20T22:15:40.914Z,21.77
2022-12-20T22:19:43.809Z,24.30
2022-12-20T22:23:46.822Z,25.40
2022-12-20T22:27:49.596Z,26.10
2022-12-20T22:31:53.791Z,24.17
2022-12-20T22:35:56.562Z,23.90
2022-12-20T22:39:59.555Z,23.50
2022-12-20T22:44:02.890Z,25.47
2022-12-20T22:48:07.355Z,25.63
2022-12-20T22:52:10.074Z,24.77
2022-12-20T22:56:13.283Z,27.50
2022-12-20T23:00:16.864Z,27.83
2022-12-20T23:04:21.192Z,27.27
2022-12-20T23:08:25.181Z,26.67
2022-12-20T23:12:45.161Z,26.43
2022-12-20T23:16:47.971Z,29.50
2022-12-20T23:21:10.353Z,26.00
2022-12-20T23:25:15.074Z,25.37
2022-12-20T23:29:18.021Z,26.93
2022-12-20T23:33:20.747Z,27.67
2022-12-20T23:37:25.115Z,28.20
2022-12-20T23:41:28.304Z,27.30
2022-12-20T23:45:31.059Z,25.27
2022-12-20T23:49:34.545Z,27.53
2022-12-20T23:53:39.341Z,23.87
2022-12-20T23:57:42.045Z,25.50
